createdAt,value
2023-04-09T00:04:55.921Z,1.67
2023-04-09T00:07:26.730Z,1.70
2023-04-09T00:09:58.121Z,1.77
2023-04-09T00:12:27.733Z,1.70
2023-04-09T00:14:59.233Z,2.33
2023-04-09T00:17:29.117Z,1.93
2023-04-09T00:19:58.219Z,1.87
2023-04-09T00:22:28.259Z,1.70
2023-04-09T00:24:57.503Z,2.33
2023-04-09T00:27:27.273Z,2.47
2023-04-09T00:29:57.298Z,2.60
2023-04-09T00:32:28.073Z,2.00
2023-04-09T00:34:57.370Z,2.00
2023-04-09T00:37:26.615Z,2.63
2023-04-09T00:39:55.826Z,2.10
2023-04-09T00:42:24.855Z,2.10
2023-04-09T00:44:54.584Z,2.80
2023-04-09T00:47:23.652Z,2.90
2023-04-09T00:49:54.964Z,2.70
2023-04-09T00:52:25.989Z,2.40
2023-04-09T00:54:57.804Z,2.30
2023-04-09T00:57:29.159Z,2.80
2023-04-09T00:59:58.631Z,2.60
2023-04-09T01:02:28.582Z,2.50
2023-04-09T01:04:59.935Z,2.33
2023-04-09T01:07:33.925Z,2.13
2023-04-09T01:10:08.041Z,2.00
2023-04-09T01:12:46.203Z,1.87
2023-04-09T01:15:20.725Z,2.10
2023-04-09T01:17:53.274Z,2.40
2023-04-09T01:20:29.672Z,2.10
2023-04-09T01:23:03.253Z,2.40
2023-04-09T01:25:41.269Z,2.20
2023-04-09T01:28:24.538Z,1.93
2023-04-09T01:30:56.669Z,2.53
2023-04-09T01:33:26.534Z,2.57
2023-04-09T01:35:56.250Z,2.67
2023-04-09T01:38:27.486Z,2.43
2023-04-09T01:40:57.476Z,2.97
2023-04-09T01:43:30.183Z,2.60
2023-04-09T01:45:59.865Z,2.70
2023-04-09T01:48:29.389Z,3.23
2023-04-09T01:50:59.919Z,3.13
2023-04-09T01:53:31.298Z,2.80
2023-04-09T01:56:02.202Z,2.80
2023-04-09T01:58:34.318Z,3.40
2023-04-09T02:01:08.723Z,2.50
2023-04-09T02:03:39.561Z,3.30
2023-04-09T02:06:11.507Z,3.00
2023-04-09T02:08:41.928Z,3.13
2023-04-09T02:11:12.567Z,3.27
2023-04-09T02:13:46.243Z,3.67
2023-04-09T02:16:15.968Z,3.53
2023-04-09T02:18:45.005Z,3.00
2023-04-09T02:21:16.387Z,3.10
2023-04-09T02:23:46.616Z,3.70
2023-04-09T02:26:15.980Z,3.43
2023-04-09T02:28:47.512Z,3.43
2023-04-09T02:31:16.851Z,3.10
2023-04-09T02:33:45.909Z,2.83
2023-04-09T02:36:15.696Z,3.63
2023-04-09T02:38:45.069Z,2.83
2023-04-09T02:41:14.497Z,2.80
2023-04-09T02:43:44.521Z,3.37
2023-04-09T02:46:15.668Z,2.83
2023-04-09T02:48:45.660Z,3.30
2023-04-09T02:51:15.257Z,3.23
2023-04-09T02:53:45.802Z,4.03
2023-04-09T02:56:16.361Z,2.50
2023-04-09T02:58:45.480Z,3.40
2023-04-09T03:01:16.889Z,4.00
2023-04-09T03:03:46.850Z,3.77
2023-04-09T03:06:18.618Z,3.53
2023-04-09T03:08:48.867Z,3.37
2023-04-09T03:11:18.064Z,3.53
2023-04-09T03:13:48.690Z,3.47
2023-04-09T03:16:21.381Z,3.33
2023-04-09T03:18:51.030Z,2.53
2023-04-09T03:21:20.426Z,2.90
2023-04-09T03:23:53.200Z,3.30
2023-04-09T03:26:23.190Z,2.83
2023-04-09T03:28:52.917Z,2.30
2023-04-09T03:31:25.384Z,2.63
2023-04-09T03:33:54.809Z,2.97
2023-04-09T03:36:24.023Z,3.00
2023-04-09T03:39:01.979Z,2.93
2023-04-09T03:41:44.523Z,2.70
2023-04-09T03:44:18.687Z,3.87
2023-04-09T03:47:22.105Z,2.43
2023-04-09T03:49:53.457Z,3.13
2023-04-09T03:52:27.384Z,3.17
2023-04-09T03:55:06.312Z,3.27
2023-04-09T03:57:36.278Z,3.03
2023-04-09T04:00:07.582Z,6.10
2023-04-09T04:02:53.990Z,3.63
2023-04-09T04:05:44.571Z,3.20
2023-04-09T04:08:17.015Z,2.80
2023-04-09T04:10:47.532Z,3.00
2023-04-09T04:13:19.325Z,3.03
2023-04-09T04:15:54.853Z,2.33
2023-04-09T04:18:28.471Z,2.70
2023-04-09T04:20:58.615Z,2.43
2023-04-09T04:23:27.971Z,2.60
2023-04-09T04:26:05.145Z,3.07
2023-04-09T04:28:37.744Z,3.27
2023-04-09T04:31:12.785Z,3.40
2023-04-09T04:33:45.120Z,2.80
2023-04-09T04:36:18.096Z,3.23
2023-04-09T04:38:50.997Z,3.50
2023-04-09T04:41:29.858Z,2.83
2023-04-09T04:44:12.630Z,3.10
2023-04-09T04:46:44.280Z,3.23
2023-04-09T04:49:15.158Z,3.47
2023-04-09T04:51:50.159Z,4.00
2023-04-09T04:54:20.168Z,3.37
2023-04-09T04:56:57.089Z,3.73
2023-04-09T04:59:34.581Z,3.63
2023-04-09T05:02:07.275Z,3.90
2023-04-09T05:04:53.034Z,3.70
2023-04-09T05:07:30.624Z,3.57
2023-04-09T05:10:01.650Z,4.17
2023-04-09T05:12:37.410Z,4.17
2023-04-09T05:15:09.817Z,3.70
2023-04-09T05:17:40.460Z,3.70
2023-04-09T05:20:14.402Z,3.60
2023-04-09T05:22:52.373Z,3.60
2023-04-09T05:25:29.724Z,3.83
2023-04-09T05:28:00.168Z,3.97
2023-04-09T05:30:30.065Z,4.10
2023-04-09T05:33:04.221Z,4.50
2023-04-09T05:35:40.371Z,3.90
2023-04-09T05:38:10.033Z,3.90
2023-04-09T05:40:40.438Z,5.13
2023-04-09T05:43:14.962Z,4.50
2023-04-09T05:45:45.997Z,4.70
2023-04-09T05:48:18.000Z,4.60
2023-04-09T05:50:55.465Z,4.93
2023-04-09T05:53:28.844Z,5.57
2023-04-09T05:55:59.313Z,5.50
2023-04-09T05:58:36.510Z,6.30
2023-04-09T06:01:06.106Z,6.03
2023-04-09T06:03:35.214Z,4.70
2023-04-09T06:06:06.780Z,5.20
2023-04-09T06:08:36.633Z,5.67
2023-04-09T06:11:08.127Z,5.27
2023-04-09T06:13:38.019Z,5.00
2023-04-09T06:16:08.709Z,4.90
2023-04-09T06:18:38.840Z,4.60
2023-04-09T06:21:11.995Z,4.20
2023-04-09T06:23:42.201Z,4.23
2023-04-09T06:26:11.318Z,4.60
2023-04-09T06:28:42.150Z,4.43
2023-04-09T06:31:11.410Z,4.43
2023-04-09T06:33:40.787Z,4.80
2023-04-09T06:36:12.218Z,4.30
2023-04-09T06:38:42.463Z,4.00
2023-04-09T06:41:13.657Z,4.63
2023-04-09T06:43:43.101Z,4.07
2023-04-09T06:46:13.653Z,4.80
2023-04-09T06:48:45.639Z,3.67
2023-04-09T06:51:16.634Z,4.37
2023-04-09T06:53:48.903Z,3.97
2023-04-09T06:56:18.963Z,3.83
2023-04-09T06:58:47.964Z,4.10
2023-04-09T07:01:18.685Z,4.20
2023-04-09T07:03:48.551Z,4.20
2023-04-09T07:06:20.451Z,3.80
2023-04-09T07:08:49.858Z,4.80
2023-04-09T07:11:18.910Z,4.77
2023-04-09T07:13:49.342Z,3.93
2023-04-09T07:16:18.730Z,4.70
2023-04-09T07:18:48.152Z,4.83
2023-04-09T07:21:17.973Z,4.47
2023-04-09T07:23:49.585Z,3.90
2023-04-09T07:26:20.408Z,4.87
2023-04-09T07:28:49.463Z,5.27
2023-04-09T07:31:19.720Z,5.00
2023-04-09T07:33:49.941Z,4.80
2023-04-09T07:36:19.225Z,4.10
2023-04-09T07:38:50.058Z,4.40
2023-04-09T07:41:21.805Z,4.60
2023-04-09T07:43:50.937Z,5.10
2023-04-09T07:46:22.049Z,5.03
2023-04-09T07:48:52.483Z,5.03
2023-04-09T07:51:21.950Z,4.80
2023-04-09T07:53:54.120Z,5.43
2023-04-09T07:56:24.145Z,4.47
2023-04-09T07:58:53.636Z,5.13
2023-04-09T08:01:25.189Z,4.40
2023-04-09T08:03:54.322Z,4.93
2023-04-09T08:06:24.483Z,5.13
2023-04-09T08:08:55.339Z,4.93
2023-04-09T08:11:26.127Z,4.97
2023-04-09T08:13:56.150Z,4.90
2023-04-09T08:16:25.538Z,5.27
2023-04-09T08:18:56.323Z,5.27
2023-04-09T08:21:25.421Z,4.80
2023-04-09T08:24:01.557Z,4.90
2023-04-09T08:26:31.857Z,5.00
2023-04-09T08:29:00.999Z,4.97
2023-04-09T08:31:30.762Z,5.13
2023-04-09T08:33:59.880Z,5.50
2023-04-09T08:36:29.304Z,5.40
2023-04-09T08:39:01.441Z,6.00
2023-04-09T08:41:31.793Z,6.70
2023-04-09T08:44:00.950Z,6.27
2023-04-09T08:46:31.569Z,6.00
2023-04-09T08:49:00.926Z,5.53
2023-04-09T08:51:31.678Z,4.60
2023-04-09T08:54:04.681Z,5.27
2023-04-09T08:56:35.889Z,5.23
2023-04-09T08:59:05.822Z,5.10
2023-04-09T09:01:35.385Z,5.00
2023-04-09T09:04:05.377Z,4.03
2023-04-09T09:06:36.059Z,3.20
2023-04-09T09:09:07.768Z,3.27
2023-04-09T09:11:37.827Z,2.90
2023-04-09T09:14:08.147Z,2.80
2023-04-09T09:16:41.814Z,3.23
2023-04-09T09:19:11.970Z,2.70
2023-04-09T09:21:42.113Z,2.23
2023-04-09T09:24:20.612Z,2.10
2023-04-09T09:26:50.644Z,2.67
2023-04-09T09:29:20.336Z,2.83
2023-04-09T09:31:51.387Z,2.27
2023-04-09T09:34:21.925Z,2.77
2023-04-09T09:36:51.124Z,2.17
2023-04-09T09:39:24.321Z,2.23
2023-04-09T09:42:09.058Z,2.20
2023-04-09T09:44:39.332Z,2.07
2023-04-09T09:47:08.752Z,2.00
2023-04-09T09:49:38.760Z,2.20
2023-04-09T09:52:11.805Z,2.20
2023-04-09T09:54:43.354Z,2.00
2023-04-09T09:57:14.875Z,1.60
2023-04-09T09:59:47.714Z,1.57
2023-04-09T10:02:21.163Z,1.80
2023-04-09T10:04:53.069Z,1.90
2023-04-09T10:07:24.153Z,1.80
2023-04-09T10:09:57.665Z,2.00
2023-04-09T10:12:27.328Z,2.20
2023-04-09T10:14:57.629Z,1.60
2023-04-09T10:17:28.006Z,1.60
2023-04-09T10:20:01.738Z,2.10
2023-04-09T10:22:34.420Z,1.67
2023-04-09T10:25:06.573Z,3.43
2023-04-09T10:27:36.839Z,1.90
2023-04-09T10:30:10.396Z,2.37
2023-04-09T10:32:40.323Z,1.50
2023-04-09T10:35:11.566Z,1.60
2023-04-09T10:37:40.875Z,1.50
2023-04-09T10:40:22.252Z,1.50
2023-04-09T10:42:52.814Z,3.13
2023-04-09T10:45:23.036Z,1.93
2023-04-09T10:47:53.056Z,2.63
2023-04-09T10:50:24.599Z,1.50
2023-04-09T10:52:55.395Z,1.57
2023-04-09T10:55:35.044Z,1.40
2023-04-09T10:58:07.127Z,1.40
2023-04-09T11:00:40.044Z,1.20
2023-04-09T11:03:21.806Z,1.33
2023-04-09T11:05:53.658Z,1.60
2023-04-09T11:08:23.545Z,1.40
2023-04-09T11:10:58.432Z,1.37
2023-04-09T11:13:29.274Z,1.30
2023-04-09T11:15:58.465Z,2.00
2023-04-09T11:18:29.090Z,1.60
2023-04-09T11:20:59.452Z,1.30
2023-04-09T11:23:29.888Z,1.93
2023-04-09T11:26:02.795Z,1.80
2023-04-09T11:28:32.888Z,1.87
2023-04-09T11:31:02.045Z,1.40
2023-04-09T11:33:35.598Z,1.40
2023-04-09T11:36:06.962Z,1.67
2023-04-09T11:38:36.582Z,1.43
2023-04-09T11:41:12.699Z,1.60
2023-04-09T11:43:43.552Z,1.50
2023-04-09T11:46:12.877Z,1.90
2023-04-09T11:48:43.061Z,1.93
2023-04-09T11:51:13.035Z,1.83
2023-04-09T11:53:43.017Z,2.10
2023-04-09T11:56:13.855Z,2.07
2023-04-09T11:58:47.899Z,1.90
2023-04-09T12:01:45.070Z,1.80
2023-04-09T12:04:21.457Z,1.70
2023-04-09T12:06:52.799Z,1.60
2023-04-09T12:09:22.112Z,1.70
2023-04-09T12:11:52.932Z,1.87
2023-04-09T12:14:25.154Z,1.80
2023-04-09T12:16:54.823Z,2.10
2023-04-09T12:19:28.724Z,4.03
2023-04-09T12:21:58.766Z,2.00
2023-04-09T12:24:28.813Z,2.00
2023-04-09T12:27:02.480Z,1.87
2023-04-09T12:29:33.915Z,2.53
2023-04-09T12:32:03.098Z,1.80
2023-04-09T12:34:33.564Z,1.67
2023-04-09T12:37:02.724Z,2.20
2023-04-09T12:39:34.304Z,2.00
2023-04-09T12:42:05.924Z,2.80
2023-04-09T12:44:37.295Z,2.40
2023-04-09T12:47:08.833Z,2.07
2023-04-09T12:49:38.757Z,2.33
2023-04-09T12:52:10.231Z,2.63
2023-04-09T12:54:40.168Z,2.90
2023-04-09T12:57:11.063Z,3.73
2023-04-09T12:59:41.168Z,3.10
2023-04-09T13:02:10.290Z,3.63
2023-04-09T13:04:40.464Z,5.60
2023-04-09T13:07:10.474Z,3.47
2023-04-09T13:09:39.901Z,2.60
2023-04-09T13:12:08.965Z,2.50
2023-04-09T13:14:41.930Z,2.60
2023-04-09T13:17:11.325Z,3.00
2023-04-09T13:19:42.710Z,2.77
2023-04-09T13:22:13.806Z,2.90
2023-04-09T13:24:43.533Z,2.47
2023-04-09T13:27:13.572Z,1.90
2023-04-09T13:29:44.300Z,4.40
2023-04-09T13:32:16.672Z,2.20
2023-04-09T13:34:46.635Z,2.60
2023-04-09T13:37:15.819Z,2.60
2023-04-09T13:39:46.700Z,4.27
2023-04-09T13:42:17.086Z,2.43
2023-04-09T13:44:48.854Z,2.97
2023-04-09T13:47:18.652Z,2.30
2023-04-09T13:49:47.996Z,1.90
2023-04-09T13:52:17.611Z,2.00
2023-04-09T13:54:46.851Z,2.50
2023-04-09T13:57:16.871Z,2.73
2023-04-09T13:59:49.176Z,2.37
2023-04-09T14:02:19.577Z,2.47
2023-04-09T14:04:48.933Z,1.60
2023-04-09T14:07:20.124Z,1.73
2023-04-09T14:09:49.172Z,2.33
2023-04-09T14:12:19.074Z,2.20
2023-04-09T14:14:51.134Z,2.20
2023-04-09T14:17:20.565Z,2.30
2023-04-09T14:19:49.686Z,2.00
2023-04-09T14:22:19.959Z,2.13
2023-04-09T14:24:49.044Z,2.10
2023-04-09T14:27:18.929Z,2.10
2023-04-09T14:29:50.206Z,1.40
2023-04-09T14:32:20.968Z,1.93
2023-04-09T14:34:50.594Z,1.90
2023-04-09T14:37:21.331Z,2.20
2023-04-09T14:39:50.428Z,2.37
2023-04-09T14:42:20.447Z,2.20
2023-04-09T14:44:51.857Z,2.00
2023-04-09T14:47:21.453Z,1.50
2023-04-09T14:49:50.562Z,2.07
2023-04-09T14:52:21.334Z,1.57
2023-04-09T14:54:50.426Z,3.07
2023-04-09T14:57:19.998Z,1.93
2023-04-09T14:59:51.692Z,1.80
2023-04-09T15:02:21.860Z,1.83
2023-04-09T15:04:51.274Z,1.67
2023-04-09T15:07:24.975Z,1.93
2023-04-09T15:09:54.524Z,2.30
2023-04-09T15:12:23.815Z,3.33
2023-04-09T15:14:54.889Z,2.37
2023-04-09T15:17:24.047Z,1.73
2023-04-09T15:19:54.547Z,2.43
2023-04-09T15:22:23.995Z,1.83
2023-04-09T15:24:53.497Z,2.03
2023-04-09T15:27:23.341Z,2.20
2023-04-09T15:29:54.095Z,2.10
2023-04-09T15:32:24.123Z,1.90
2023-04-09T15:34:53.964Z,2.10
2023-04-09T15:37:23.900Z,1.93
2023-04-09T15:39:53.047Z,2.80
2023-04-09T15:42:24.476Z,1.93
2023-04-09T15:44:55.267Z,1.83
2023-04-09T15:47:25.884Z,2.13
2023-04-09T15:49:56.092Z,2.00
2023-04-09T15:52:25.934Z,2.13
2023-04-09T15:54:55.763Z,1.70
2023-04-09T15:57:25.748Z,2.47
2023-04-09T15:59:56.612Z,1.90
2023-04-09T16:02:26.804Z,2.80
2023-04-09T16:04:56.107Z,1.70
2023-04-09T16:07:27.156Z,2.00
2023-04-09T16:09:56.384Z,2.27
2023-04-09T16:12:26.401Z,2.30
2023-04-09T16:14:57.268Z,1.70
2023-04-09T16:17:27.364Z,1.70
2023-04-09T16:19:56.516Z,3.10
2023-04-09T16:22:26.746Z,2.00
2023-04-09T16:24:55.905Z,2.10
2023-04-09T16:27:25.570Z,2.03
2023-04-09T16:29:54.947Z,2.83
2023-04-09T16:32:26.058Z,2.07
2023-04-09T16:34:56.469Z,2.90
2023-04-09T16:37:25.532Z,2.13
2023-04-09T16:39:56.707Z,3.37
2023-04-09T16:42:27.126Z,2.90
2023-04-09T16:44:57.192Z,2.60
2023-04-09T16:47:28.705Z,1.83
2023-04-09T16:49:58.234Z,1.93
2023-04-09T16:52:28.008Z,2.93
2023-04-09T16:54:57.796Z,1.90
2023-04-09T16:57:26.785Z,3.30
2023-04-09T16:59:56.978Z,1.90
2023-04-09T17:02:28.096Z,1.90
2023-04-09T17:04:57.837Z,2.30
2023-04-09T17:07:27.056Z,2.70
2023-04-09T17:09:57.544Z,3.33
2023-04-09T17:12:26.887Z,2.90
2023-04-09T17:14:56.869Z,2.77
2023-04-09T17:17:27.617Z,2.70
2023-04-09T17:19:58.546Z,2.03
2023-04-09T17:22:28.770Z,2.20
2023-04-09T17:24:57.827Z,2.90
2023-04-09T17:27:27.740Z,2.40
2023-04-09T17:29:57.205Z,2.40
2023-04-09T17:32:28.185Z,2.27
2023-04-09T17:34:59.769Z,2.27
2023-04-09T17:37:29.980Z,2.40
2023-04-09T17:39:58.949Z,2.20
2023-04-09T17:42:30.646Z,3.10
2023-04-09T17:44:59.996Z,1.97
2023-04-09T17:47:30.607Z,2.73
2023-04-09T17:50:01.769Z,1.63
2023-04-09T17:52:36.722Z,2.10
2023-04-09T17:55:08.472Z,2.50
2023-04-09T17:57:37.871Z,3.03
2023-04-09T18:00:07.511Z,4.40
2023-04-09T18:02:39.366Z,2.33
2023-04-09T18:05:09.197Z,2.73
2023-04-09T18:07:39.928Z,2.37
2023-04-09T18:10:09.418Z,2.43
2023-04-09T18:12:39.394Z,2.57
2023-04-09T18:15:09.302Z,2.83
2023-04-09T18:17:40.233Z,3.10
2023-04-09T18:20:10.828Z,3.40
2023-04-09T18:22:39.970Z,3.20
2023-04-09T18:25:09.854Z,2.97
2023-04-09T18:27:39.294Z,5.27
2023-04-09T18:30:09.464Z,2.70
2023-04-09T18:32:40.947Z,2.93
2023-04-09T18:35:11.893Z,2.53
2023-04-09T18:37:41.061Z,3.27
2023-04-09T18:40:12.640Z,2.57
2023-04-09T18:42:43.357Z,3.47
2023-04-09T18:45:13.539Z,3.83
2023-04-09T18:47:44.323Z,3.60
2023-04-09T18:50:15.779Z,3.47
2023-04-09T18:52:45.200Z,4.17
2023-04-09T18:55:14.477Z,3.70
2023-04-09T18:57:45.271Z,2.40
2023-04-09T19:00:14.792Z,3.53
2023-04-09T19:02:45.681Z,2.80
2023-04-09T19:05:16.045Z,3.30
2023-04-09T19:07:45.344Z,3.30
2023-04-09T19:10:15.566Z,2.50
2023-04-09T19:12:51.256Z,2.90
2023-04-09T19:15:20.630Z,2.67
2023-04-09T19:17:51.171Z,2.40
2023-04-09T19:20:21.379Z,2.73
2023-04-09T19:22:50.656Z,3.60
2023-04-09T19:25:21.084Z,3.10
2023-04-09T19:27:50.379Z,2.87
2023-04-09T19:30:20.578Z,3.00
2023-04-09T19:32:51.651Z,2.37
2023-04-09T19:35:21.210Z,2.17
2023-04-09T19:37:50.648Z,3.30
2023-04-09T19:43:30.359Z,2.60
2023-04-09T19:46:00.869Z,2.43
2023-04-09T19:48:31.957Z,2.70
2023-04-09T19:51:02.160Z,3.10
2023-04-09T19:53:31.439Z,2.53
2023-04-09T19:56:02.299Z,2.77
2023-04-09T19:58:32.779Z,2.80
2023-04-09T20:01:07.565Z,2.60
2023-04-09T20:03:40.194Z,2.60
2023-04-09T20:06:10.287Z,2.80
2023-04-09T20:08:39.703Z,3.30
2023-04-09T20:11:10.713Z,3.07
2023-04-09T20:13:39.952Z,2.83
2023-04-09T20:16:09.883Z,3.93
2023-04-09T20:21:35.803Z,3.07
2023-04-09T20:27:02.763Z,3.27
2023-04-09T20:29:58.275Z,3.37
2023-04-09T20:32:28.568Z,3.00
2023-04-09T20:34:57.658Z,4.17
2023-04-09T20:37:29.160Z,3.23
2023-04-09T20:39:59.894Z,3.60
2023-04-09T20:42:28.974Z,3.00
2023-04-09T20:45:01.281Z,3.00
2023-04-09T20:47:31.940Z,3.67
2023-04-09T20:50:01.489Z,3.30
2023-04-09T20:52:33.457Z,3.60
2023-04-09T20:55:02.755Z,3.27
2023-04-09T20:57:31.839Z,3.77
2023-04-09T21:00:03.039Z,9.30
2023-04-09T21:02:32.838Z,3.67
2023-04-09T21:05:11.745Z,3.60
2023-04-09T21:07:54.391Z,2.87
2023-04-09T21:10:24.294Z,4.07
2023-04-09T21:12:53.455Z,3.00
2023-04-09T21:15:24.391Z,3.67
2023-04-09T21:17:53.489Z,3.00
2023-04-09T21:20:23.417Z,3.60
2023-04-09T21:22:54.641Z,4.10
2023-04-09T21:25:24.017Z,4.53
2023-04-09T21:27:53.130Z,4.80
2023-04-09T21:30:23.872Z,7.13
2023-04-09T21:32:54.668Z,4.30
2023-04-09T21:35:25.766Z,3.43
2023-04-09T21:37:56.912Z,6.00
2023-04-09T21:40:28.032Z,4.73
2023-04-09T21:42:57.963Z,4.33
2023-04-09T21:45:27.274Z,4.17
2023-04-09T21:47:57.851Z,4.83
2023-04-09T21:50:27.280Z,4.47
2023-04-09T21:52:57.819Z,4.20
2023-04-09T21:55:28.079Z,4.23
2023-04-09T21:57:57.225Z,4.50
2023-04-09T22:00:26.763Z,3.90
2023-04-09T22:03:02.044Z,4.30
2023-04-09T22:05:32.024Z,4.20
2023-04-09T22:08:03.423Z,4.83
2023-04-09T22:10:32.979Z,5.00
2023-04-09T22:13:01.983Z,4.73
2023-04-09T22:15:32.008Z,5.33
2023-04-09T22:18:01.123Z,4.70
2023-04-09T22:20:31.070Z,4.17
2023-04-09T22:23:00.892Z,4.00
2023-04-09T22:25:35.066Z,3.90
2023-04-09T22:28:06.099Z,3.33
2023-04-09T22:30:35.160Z,3.97
2023-04-09T22:33:05.242Z,4.20
2023-04-09T22:35:36.017Z,3.80
2023-04-09T22:38:05.699Z,3.37
2023-04-09T22:40:37.089Z,4.07
2023-04-09T22:43:07.572Z,4.10
2023-04-09T22:45:36.903Z,3.67
2023-04-09T22:48:08.832Z,3.47
2023-04-09T22:50:38.687Z,3.73
2023-04-09T22:53:07.679Z,3.90
2023-04-09T22:55:39.386Z,4.07
2023-04-09T22:58:08.831Z,3.37
2023-04-09T23:00:37.990Z,3.07
2023-04-09T23:03:08.332Z,4.00
2023-04-09T23:05:37.760Z,4.33
2023-04-09T23:08:07.716Z,3.87
2023-04-09T23:10:37.578Z,4.77
2023-04-09T23:13:10.257Z,4.40
2023-04-09T23:15:40.665Z,4.57
2023-04-09T23:18:10.182Z,5.33
2023-04-09T23:20:40.109Z,4.60
2023-04-09T23:23:10.320Z,4.40
2023-04-09T23:25:39.742Z,4.10
2023-04-09T23:28:10.405Z,4.40
2023-04-09T23:30:40.737Z,3.50
2023-04-09T23:33:09.834Z,3.90
2023-04-09T23:35:39.346Z,4.53
2023-04-09T23:38:08.640Z,3.60
2023-04-09T23:40:38.026Z,4.00
2023-04-09T23:43:07.179Z,3.60
2023-04-09T23:45:38.732Z,3.67
2023-04-09T23:48:09.002Z,4.00
2023-04-09T23:50:41.484Z,4.30
2023-04-09T23:53:11.596Z,5.10
2023-04-09T23:55:41.509Z,5.20
2023-04-09T23:58:12.651Z,5.30
